sensor_id;sensor_type;location;lat;lon;timestamp;pressure;altitude;pressure_sealevel;temperature;humidity
27210;BME280;14721;42.668;23.386;2023-02-10T00:01:48;97140.75;;;-4.51;66.17
27210;BME280;14721;42.668;23.386;2023-02-10T00:04:14;97147.66;;;-4.54;65.99
27210;BME280;14721;42.668;23.386;2023-02-10T00:06:39;97149.31;;;-4.58;66.69
27210;BME280;14721;42.668;23.386;2023-02-10T00:09:06;97144.06;;;-4.62;66.41
27210;BME280;14721;42.668;23.386;2023-02-10T00:11:32;97151.56;;;-4.85;67.32
27210;BME280;14721;42.668;23.386;2023-02-10T00:14:17;97138.41;;;-4.95;67.14
27210;BME280;14721;42.668;23.386;2023-02-10T00:16:44;97136.69;;;-4.93;67.92
27210;BME280;14721;42.668;23.386;2023-02-10T00:19:10;97146.47;;;-4.76;67.91
27210;BME280;14721;42.668;23.386;2023-02-10T00:21:36;97140.69;;;-4.55;67.50
27210;BME280;14721;42.668;23.386;2023-02-10T00:24:01;97135.38;;;-4.63;66.85
27210;BME280;14721;42.668;23.386;2023-02-10T00:26:27;97138.63;;;-4.79;67.58
27210;BME280;14721;42.668;23.386;2023-02-10T00:28:52;97141.22;;;-4.80;66.85
27210;BME280;14721;42.668;23.386;2023-02-10T00:31:18;97141.16;;;-4.85;67.63
27210;BME280;14721;42.668;23.386;2023-02-10T00:33:45;97136.75;;;-4.89;67.82
27210;BME280;14721;42.668;23.386;2023-02-10T00:36:12;97130.72;;;-4.85;68.35
27210;BME280;14721;42.668;23.386;2023-02-10T00:38:39;97131.88;;;-4.65;68.57
27210;BME280;14721;42.668;23.386;2023-02-10T00:41:07;97121.59;;;-4.51;67.99
27210;BME280;14721;42.668;23.386;2023-02-10T00:43:35;97123.22;;;-4.61;67.57
27210;BME280;14721;42.668;23.386;2023-02-10T00:46:02;97118.91;;;-4.57;67.60
27210;BME280;14721;42.668;23.386;2023-02-10T00:48:28;97122.38;;;-4.60;67.01
27210;BME280;14721;42.668;23.386;2023-02-10T00:50:54;97116.94;;;-4.76;66.49
27210;BME280;14721;42.668;23.386;2023-02-10T00:53:21;97109.16;;;-4.75;65.94
27210;BME280;14721;42.668;23.386;2023-02-10T00:55:47;97113.34;;;-4.86;66.13
27210;BME280;14721;42.668;23.386;2023-02-10T00:58:13;97109.63;;;-5.01;66.36
27210;BME280;14721;42.668;23.386;2023-02-10T01:00:38;97121.84;;;-5.00;66.43
27210;BME280;14721;42.668;23.386;2023-02-10T01:03:04;97117.28;;;-5.16;66.46
27210;BME280;14721;42.668;23.386;2023-02-10T01:05:30;97115.91;;;-5.48;68.20
27210;BME280;14721;42.668;23.386;2023-02-10T01:07:55;97108.94;;;-5.51;68.07
27210;BME280;14721;42.668;23.386;2023-02-10T01:10:21;97106.25;;;-5.55;68.54
27210;BME280;14721;42.668;23.386;2023-02-10T01:12:47;97101.19;;;-5.46;68.29
27210;BME280;14721;42.668;23.386;2023-02-10T01:15:13;97108.03;;;-5.53;68.22
27210;BME280;14721;42.668;23.386;2023-02-10T01:17:39;97102.06;;;-5.46;67.76
27210;BME280;14721;42.668;23.386;2023-02-10T01:20:05;97095.25;;;-5.36;67.40
27210;BME280;14721;42.668;23.386;2023-02-10T01:22:32;97102.25;;;-5.32;68.26
27210;BME280;14721;42.668;23.386;2023-02-10T01:24:59;97097.88;;;-5.35;67.59
27210;BME280;14721;42.668;23.386;2023-02-10T01:27:24;97093.25;;;-5.55;68.04
27210;BME280;14721;42.668;23.386;2023-02-10T01:29:50;97101.25;;;-5.42;67.89
27210;BME280;14721;42.668;23.386;2023-02-10T01:32:16;97095.72;;;-5.63;67.88
27210;BME280;14721;42.668;23.386;2023-02-10T01:34:42;97095.69;;;-5.66;67.89
27210;BME280;14721;42.668;23.386;2023-02-10T01:37:08;97082.81;;;-5.55;68.99
27210;BME280;14721;42.668;23.386;2023-02-10T01:39:33;97087.34;;;-5.44;68.29
27210;BME280;14721;42.668;23.386;2023-02-10T01:42:00;97088.25;;;-5.40;67.68
27210;BME280;14721;42.668;23.386;2023-02-10T01:46:53;97080.94;;;-5.64;67.61
27210;BME280;14721;42.668;23.386;2023-02-10T01:49:22;97083.53;;;-5.64;68.31
27210;BME280;14721;42.668;23.386;2023-02-10T01:51:58;97077.34;;;-5.72;68.46
27210;BME280;14721;42.668;23.386;2023-02-10T01:54:32;97074.59;;;-5.84;68.09
27210;BME280;14721;42.668;23.386;2023-02-10T01:56:59;97079.19;;;-5.65;68.10
27210;BME280;14721;42.668;23.386;2023-02-10T01:59:33;97064.66;;;-5.52;67.53
27210;BME280;14721;42.668;23.386;2023-02-10T02:02:00;97067.13;;;-5.60;68.27
27210;BME280;14721;42.668;23.386;2023-02-10T02:04:40;97057.63;;;-5.56;68.58
27210;BME280;14721;42.668;23.386;2023-02-10T02:07:08;97054.13;;;-5.60;68.64
27210;BME280;14721;42.668;23.386;2023-02-10T02:09:33;97056.81;;;-5.54;67.98
27210;BME280;14721;42.668;23.386;2023-02-10T02:12:09;97054.13;;;-5.58;68.31
27210;BME280;14721;42.668;23.386;2023-02-10T02:14:52;97048.81;;;-5.66;67.37
27210;BME280;14721;42.668;23.386;2023-02-10T02:23:01;97036.88;;;-5.49;66.31
27210;BME280;14721;42.668;23.386;2023-02-10T02:28:42;97044.06;;;-5.93;67.67
27210;BME280;14721;42.668;23.386;2023-02-10T02:34:02;97036.34;;;-5.87;68.58
27210;BME280;14721;42.668;23.386;2023-02-10T02:36:35;97034.97;;;-5.62;67.93
27210;BME280;14721;42.668;23.386;2023-02-10T02:39:04;97032.41;;;-5.60;68.05
27210;BME280;14721;42.668;23.386;2023-02-10T02:41:31;97037.63;;;-5.59;67.97
27210;BME280;14721;42.668;23.386;2023-02-10T02:43:59;97041.91;;;-5.61;67.93
27210;BME280;14721;42.668;23.386;2023-02-10T02:47:04;97038.47;;;-5.61;68.49
27210;BME280;14721;42.668;23.386;2023-02-10T02:49:40;97041.91;;;-5.61;68.56
27210;BME280;14721;42.668;23.386;2023-02-10T02:52:14;97041.88;;;-5.64;68.31
27210;BME280;14721;42.668;23.386;2023-02-10T02:54:54;97033.19;;;-5.66;68.53
27210;BME280;14721;42.668;23.386;2023-02-10T02:57:50;97039.91;;;-5.81;69.57
27210;BME280;14721;42.668;23.386;2023-02-10T03:00:28;97035.53;;;-5.85;70.27
27210;BME280;14721;42.668;23.386;2023-02-10T03:02:55;97042.44;;;-5.86;69.88
27210;BME280;14721;42.668;23.386;2023-02-10T03:05:23;97041.66;;;-5.79;70.13
27210;BME280;14721;42.668;23.386;2023-02-10T03:07:53;97039.03;;;-5.79;70.66
27210;BME280;14721;42.668;23.386;2023-02-10T03:10:18;97027.59;;;-5.93;70.24
27210;BME280;14721;42.668;23.386;2023-02-10T03:12:44;97036.22;;;-5.96;70.32
27210;BME280;14721;42.668;23.386;2023-02-10T03:15:09;97039.53;;;-6.06;70.89
27210;BME280;14721;42.668;23.386;2023-02-10T03:17:36;97037.63;;;-6.17;70.70
27210;BME280;14721;42.668;23.386;2023-02-10T03:20:02;97048.75;;;-6.24;71.10
27210;BME280;14721;42.668;23.386;2023-02-10T03:22:27;97040.72;;;-6.36;71.77
27210;BME280;14721;42.668;23.386;2023-02-10T03:24:53;97040.66;;;-6.39;71.51
27210;BME280;14721;42.668;23.386;2023-02-10T03:27:18;97042.41;;;-6.40;71.88
27210;BME280;14721;42.668;23.386;2023-02-10T03:29:44;97042.28;;;-6.47;72.32
27210;BME280;14721;42.668;23.386;2023-02-10T03:32:10;97044.75;;;-6.55;72.81
27210;BME280;14721;42.668;23.386;2023-02-10T03:34:35;97043.97;;;-6.49;73.36
27210;BME280;14721;42.668;23.386;2023-02-10T03:37:01;97046.84;;;-6.34;73.70
27210;BME280;14721;42.668;23.386;2023-02-10T03:39:26;97045.31;;;-6.23;72.99
27210;BME280;14721;42.668;23.386;2023-02-10T03:41:52;97042.69;;;-6.25;72.54
27210;BME280;14721;42.668;23.386;2023-02-10T03:44:20;97038.28;;;-6.27;71.86
27210;BME280;14721;42.668;23.386;2023-02-10T03:46:46;97025.19;;;-6.33;72.57
27210;BME280;14721;42.668;23.386;2023-02-10T03:49:12;97033.13;;;-6.24;72.73
27210;BME280;14721;42.668;23.386;2023-02-10T03:51:38;97027.19;;;-6.19;71.95
27210;BME280;14721;42.668;23.386;2023-02-10T03:54:03;97030.63;;;-6.18;72.60
27210;BME280;14721;42.668;23.386;2023-02-10T03:56:29;97023.78;;;-6.13;72.77
27210;BME280;14721;42.668;23.386;2023-02-10T03:58:55;97022.72;;;-6.24;72.46
27210;BME280;14721;42.668;23.386;2023-02-10T04:01:20;97024.47;;;-6.25;72.33
27210;BME280;14721;42.668;23.386;2023-02-10T04:03:46;97020.03;;;-6.30;73.26
27210;BME280;14721;42.668;23.386;2023-02-10T04:06:12;97008.72;;;-6.34;73.02
27210;BME280;14721;42.668;23.386;2023-02-10T04:08:38;97016.75;;;-6.20;72.90
27210;BME280;14721;42.668;23.386;2023-02-10T04:11:04;97022.91;;;-6.14;73.63
27210;BME280;14721;42.668;23.386;2023-02-10T04:13:30;97023.78;;;-6.15;73.02
27210;BME280;14721;42.668;23.386;2023-02-10T04:16:13;97020.06;;;-6.27;72.99
27210;BME280;14721;42.668;23.386;2023-02-10T04:18:40;97019.16;;;-6.31;72.45
27210;BME280;14721;42.668;23.386;2023-02-10T04:21:07;97019.84;;;-6.41;73.76
27210;BME280;14721;42.668;23.386;2023-02-10T04:23:34;97016.50;;;-6.35;73.66
27210;BME280;14721;42.668;23.386;2023-02-10T04:26:00;97015.72;;;-6.30;73.89
27210;BME280;14721;42.668;23.386;2023-02-10T04:28:26;97020.06;;;-6.27;73.90
27210;BME280;14721;42.668;23.386;2023-02-10T04:30:54;97014.03;;;-6.28;73.31
27210;BME280;14721;42.668;23.386;2023-02-10T04:33:20;97011.31;;;-6.34;73.98
27210;BME280;14721;42.668;23.386;2023-02-10T04:35:49;97019.88;;;-6.39;73.74
27210;BME280;14721;42.668;23.386;2023-02-10T04:38:15;97018.94;;;-6.44;74.02
27210;BME280;14721;42.668;23.386;2023-02-10T04:40:42;97010.00;;;-6.58;73.79
27210;BME280;14721;42.668;23.386;2023-02-10T04:43:10;97016.84;;;-6.63;73.02
27210;BME280;14721;42.668;23.386;2023-02-10T04:45:37;97018.53;;;-6.67;72.92
27210;BME280;14721;42.668;23.386;2023-02-10T04:48:03;97018.53;;;-6.67;72.41
27210;BME280;14721;42.668;23.386;2023-02-10T04:50:29;97027.72;;;-6.84;72.35
27210;BME280;14721;42.668;23.386;2023-02-10T04:52:55;97032.88;;;-6.85;72.96
27210;BME280;14721;42.668;23.386;2023-02-10T04:55:21;97032.84;;;-6.87;72.93
27210;BME280;14721;42.668;23.386;2023-02-10T04:57:46;97037.19;;;-6.86;73.34
27210;BME280;14721;42.668;23.386;2023-02-10T05:00:13;97028.56;;;-6.85;72.84
27210;BME280;14721;42.668;23.386;2023-02-10T05:02:39;97024.97;;;-6.91;73.27
27210;BME280;14721;42.668;23.386;2023-02-10T05:05:05;97030.16;;;-6.91;73.45
27210;BME280;14721;42.668;23.386;2023-02-10T05:07:30;97027.56;;;-6.91;73.91
27210;BME280;14721;42.668;23.386;2023-02-10T05:09:56;97036.34;;;-6.86;73.65
27210;BME280;14721;42.668;23.386;2023-02-10T05:12:22;97041.41;;;-6.92;73.65
27210;BME280;14721;42.668;23.386;2023-02-10T05:14:47;97045.53;;;-7.03;74.31
27210;BME280;14721;42.668;23.386;2023-02-10T05:17:13;97047.28;;;-7.01;74.34
27210;BME280;14721;42.668;23.386;2023-02-10T05:19:38;97048.13;;;-7.03;74.64
27210;BME280;14721;42.668;23.386;2023-02-10T05:22:04;97055.88;;;-7.05;74.90
27210;BME280;14721;42.668;23.386;2023-02-10T05:24:30;97058.56;;;-7.00;74.47
27210;BME280;14721;42.668;23.386;2023-02-10T05:26:56;97062.75;;;-7.07;74.98
27210;BME280;14721;42.668;23.386;2023-02-10T05:29:21;97079.50;;;-6.93;74.84
27210;BME280;14721;42.668;23.386;2023-02-10T05:31:47;97079.47;;;-6.94;74.36
27210;BME280;14721;42.668;23.386;2023-02-10T05:34:13;97081.81;;;-7.06;74.36
27210;BME280;14721;42.668;23.386;2023-02-10T05:36:38;97087.03;;;-7.06;74.71
27210;BME280;14721;42.668;23.386;2023-02-10T05:39:04;97092.88;;;-7.16;74.99
27210;BME280;14721;42.668;23.386;2023-02-10T05:41:48;97095.53;;;-7.13;74.80
27210;BME280;14721;42.668;23.386;2023-02-10T05:44:14;97092.75;;;-7.22;74.30
27210;BME280;14721;42.668;23.386;2023-02-10T05:46:40;97097.25;;;-7.14;74.71
27210;BME280;14721;42.668;23.386;2023-02-10T05:49:06;97078.56;;;-6.96;74.46
27210;BME280;14721;42.668;23.386;2023-02-10T05:51:32;97103.50;;;-6.63;73.99
27210;BME280;14721;42.668;23.386;2023-02-10T05:53:57;97101.66;;;-6.24;72.50
27210;BME280;14721;42.668;23.386;2023-02-10T05:56:23;97101.16;;;-6.02;71.48
27210;BME280;14721;42.668;23.386;2023-02-10T05:58:49;97098.25;;;-5.69;69.86
27210;BME280;14721;42.668;23.386;2023-02-10T06:01:15;97100.56;;;-5.30;68.82
27210;BME280;14721;42.668;23.386;2023-02-10T06:03:41;97092.47;;;-4.87;67.14
27210;BME280;14721;42.668;23.386;2023-02-10T06:06:07;97103.16;;;-4.66;65.65
27210;BME280;14721;42.668;23.386;2023-02-10T06:08:32;97097.56;;;-4.22;65.50
27210;BME280;14721;42.668;23.386;2023-02-10T06:10:58;97102.34;;;-3.80;63.77
27210;BME280;14721;42.668;23.386;2023-02-10T06:13:23;97093.94;;;-3.44;62.96
27210;BME280;14721;42.668;23.386;2023-02-10T06:15:49;97101.94;;;-3.23;61.22
27210;BME280;14721;42.668;23.386;2023-02-10T06:18:15;97114.22;;;-3.09;60.92
27210;BME280;14721;42.668;23.386;2023-02-10T06:20:40;97104.75;;;-2.92;60.60
27210;BME280;14721;42.668;23.386;2023-02-10T06:23:06;97105.81;;;-2.46;59.34
27210;BME280;14721;42.668;23.386;2023-02-10T06:25:32;97109.50;;;-1.67;58.16
27210;BME280;14721;42.668;23.386;2023-02-10T06:28:01;97114.78;;;-1.51;55.40
27210;BME280;14721;42.668;23.386;2023-02-10T06:30:27;97125.25;;;-1.39;54.41
27210;BME280;14721;42.668;23.386;2023-02-10T06:32:53;97125.25;;;-1.45;54.33
27210;BME280;14721;42.668;23.386;2023-02-10T06:35:18;97125.25;;;-1.51;54.74
27210;BME280;14721;42.668;23.386;2023-02-10T06:37:44;97123.53;;;-1.28;53.04
27210;BME280;14721;42.668;23.386;2023-02-10T06:40:10;97122.63;;;-1.07;53.15
27210;BME280;14721;42.668;23.386;2023-02-10T06:42:37;97119.00;;;-0.51;52.66
27210;BME280;14721;42.668;23.386;2023-02-10T06:45:03;97113.72;;;-0.45;51.42
27210;BME280;14721;42.668;23.386;2023-02-10T06:47:29;97121.53;;;-0.27;50.91
27210;BME280;14721;42.668;23.386;2023-02-10T06:49:54;97123.31;;;-0.29;50.67
27210;BME280;14721;42.668;23.386;2023-02-10T06:52:20;97118.00;;;-0.15;49.87
27210;BME280;14721;42.668;23.386;2023-02-10T06:54:46;97116.97;;;0.13;50.02
27210;BME280;14721;42.668;23.386;2023-02-10T06:57:12;97122.16;;;0.27;50.09
27210;BME280;14721;42.668;23.386;2023-02-10T06:59:37;97121.19;;;0.35;49.45
27210;BME280;14721;42.668;23.386;2023-02-10T07:02:03;97127.81;;;0.86;49.07
27210;BME280;14721;42.668;23.386;2023-02-10T07:04:31;97115.44;;;1.00;48.02
27210;BME280;14721;42.668;23.386;2023-02-10T07:06:57;97136.66;;;0.79;47.86
27210;BME280;14721;42.668;23.386;2023-02-10T07:09:24;97128.03;;;0.59;48.39
27210;BME280;14721;42.668;23.386;2023-02-10T07:11:50;97118.53;;;0.43;49.02
27210;BME280;14721;42.668;23.386;2023-02-10T07:14:16;97120.06;;;0.71;48.05
27210;BME280;14721;42.668;23.386;2023-02-10T07:16:42;97111.16;;;0.88;47.82
27210;BME280;14721;42.668;23.386;2023-02-10T07:19:07;97112.56;;;1.24;47.26
27210;BME280;14721;42.668;23.386;2023-02-10T07:21:33;97105.50;;;1.30;46.54
27210;BME280;14721;42.668;23.386;2023-02-10T07:23:59;97110.72;;;1.35;46.48
27210;BME280;14721;42.668;23.386;2023-02-10T07:26:27;97110.47;;;1.56;46.30
27210;BME280;14721;42.668;23.386;2023-02-10T07:28:53;97118.41;;;1.54;46.06
27210;BME280;14721;42.668;23.386;2023-02-10T07:31:19;97114.75;;;1.66;45.95
27210;BME280;14721;42.668;23.386;2023-02-10T07:33:44;97113.63;;;1.85;45.30
27210;BME280;14721;42.668;23.386;2023-02-10T07:36:11;97117.75;;;2.07;45.00
27210;BME280;14721;42.668;23.386;2023-02-10T07:38:36;97112.91;;;2.38;44.48
27210;BME280;14721;42.668;23.386;2023-02-10T07:41:04;97093.13;;;2.66;44.08
27210;BME280;14721;42.668;23.386;2023-02-10T07:43:30;97111.28;;;2.29;44.07
27210;BME280;14721;42.668;23.386;2023-02-10T07:45:56;97107.16;;;2.10;44.61
27210;BME280;14721;42.668;23.386;2023-02-10T07:48:21;97102.59;;;2.21;44.48
27210;BME280;14721;42.668;23.386;2023-02-10T07:50:47;97108.75;;;2.22;44.39
27210;BME280;14721;42.668;23.386;2023-02-10T07:53:13;97107.31;;;2.60;44.51
27210;BME280;14721;42.668;23.386;2023-02-10T07:55:39;97089.06;;;3.00;43.35
27210;BME280;14721;42.668;23.386;2023-02-10T07:58:06;97112.13;;;2.89;42.48
27210;BME280;14721;42.668;23.386;2023-02-10T08:00:32;97107.78;;;2.86;42.48
27210;BME280;14721;42.668;23.386;2023-02-10T08:02:57;97123.59;;;2.86;42.68
27210;BME280;14721;42.668;23.386;2023-02-10T08:05:23;97112.34;;;2.75;42.43
27210;BME280;14721;42.668;23.386;2023-02-10T08:07:49;97097.56;;;2.65;42.56
27210;BME280;14721;42.668;23.386;2023-02-10T08:10:15;97098.00;;;2.90;43.00
27210;BME280;14721;42.668;23.386;2023-02-10T08:12:40;97110.50;;;2.23;43.19
27210;BME280;14721;42.668;23.386;2023-02-10T08:15:07;97107.44;;;2.51;43.30
27210;BME280;14721;42.668;23.386;2023-02-10T08:17:33;97091.06;;;2.30;43.87
27210;BME280;14721;42.668;23.386;2023-02-10T08:19:58;97091.38;;;2.07;44.65
27210;BME280;14721;42.668;23.386;2023-02-10T08:22:24;97099.81;;;1.66;45.87
27210;BME280;14721;42.668;23.386;2023-02-10T08:24:50;97093.25;;;1.25;46.70
27210;BME280;14721;42.668;23.386;2023-02-10T08:27:15;97107.59;;;0.92;47.17
27210;BME280;14721;42.668;23.386;2023-02-10T08:29:41;97101.69;;;0.65;48.07
27210;BME280;14721;42.668;23.386;2023-02-10T08:32:06;97105.22;;;0.64;48.61
27210;BME280;14721;42.668;23.386;2023-02-10T08:34:32;97110.72;;;0.29;48.59
27210;BME280;14721;42.668;23.386;2023-02-10T08:36:57;97092.47;;;0.08;49.70
27210;BME280;14721;42.668;23.386;2023-02-10T08:39:23;97109.22;;;-0.10;50.25
27210;BME280;14721;42.668;23.386;2023-02-10T08:41:48;97093.63;;;-0.50;50.36
27210;BME280;14721;42.668;23.386;2023-02-10T08:44:14;97105.06;;;-0.62;51.57
27210;BME280;14721;42.668;23.386;2023-02-10T08:46:40;97105.06;;;-0.62;52.75
27210;BME280;14721;42.668;23.386;2023-02-10T08:49:05;97096.34;;;-0.79;52.22
27210;BME280;14721;42.668;23.386;2023-02-10T08:51:31;97103.28;;;-0.67;52.39
27210;BME280;14721;42.668;23.386;2023-02-10T08:54:00;97103.28;;;-0.64;52.62
27210;BME280;14721;42.668;23.386;2023-02-10T08:56:26;97098.00;;;-0.58;52.49
27210;BME280;14721;42.668;23.386;2023-02-10T08:58:51;97098.94;;;-0.76;52.28
27210;BME280;14721;42.668;23.386;2023-02-10T09:01:22;97090.25;;;-1.00;52.77
27210;BME280;14721;42.668;23.386;2023-02-10T09:03:48;97094.66;;;-1.08;54.15
27210;BME280;14721;42.668;23.386;2023-02-10T09:06:20;97095.47;;;-0.93;53.38
27210;BME280;14721;42.668;23.386;2023-02-10T09:08:48;97073.66;;;-0.99;53.97
27210;BME280;14721;42.668;23.386;2023-02-10T09:11:15;97088.50;;;-0.94;53.51
27210;BME280;14721;42.668;23.386;2023-02-10T09:13:41;97071.88;;;-0.99;53.46
27210;BME280;14721;42.668;23.386;2023-02-10T09:16:06;97077.94;;;-0.74;53.41
27210;BME280;14721;42.668;23.386;2023-02-10T09:18:32;97073.56;;;-0.68;53.35
27210;BME280;14721;42.668;23.386;2023-02-10T09:20:59;97080.63;;;-0.89;52.64
27210;BME280;14721;42.668;23.386;2023-02-10T09:23:28;97080.66;;;-1.13;53.08
27210;BME280;14721;42.668;23.386;2023-02-10T09:25:58;97072.78;;;-1.01;53.27
27210;BME280;14721;42.668;23.386;2023-02-10T09:28:25;97074.44;;;-0.78;52.94
27210;BME280;14721;42.668;23.386;2023-02-10T09:30:51;97073.53;;;-0.59;52.64
27210;BME280;14721;42.668;23.386;2023-02-10T09:33:16;97066.56;;;-0.70;52.19
27210;BME280;14721;42.668;23.386;2023-02-10T09:35:42;97064.84;;;-0.77;52.21
27210;BME280;14721;42.668;23.386;2023-02-10T09:38:09;97059.56;;;-0.68;52.11
27210;BME280;14721;42.668;23.386;2023-02-10T09:40:46;97063.84;;;-0.51;52.09
27210;BME280;14721;42.668;23.386;2023-02-10T09:46:08;97052.34;;;-0.18;51.68
27210;BME280;14721;42.668;23.386;2023-02-10T09:49:07;97048.78;;;-0.11;51.84
27210;BME280;14721;42.668;23.386;2023-02-10T09:54:19;97048.84;;;-0.20;51.79
27210;BME280;14721;42.668;23.386;2023-02-10T09:56:45;97049.75;;;-0.27;51.88
27210;BME280;14721;42.668;23.386;2023-02-10T09:59:15;97036.66;;;-0.33;51.83
27210;BME280;14721;42.668;23.386;2023-02-10T10:01:46;97034.84;;;-0.24;52.00
27210;BME280;14721;42.668;23.386;2023-02-10T10:04:16;97040.97;;;-0.22;52.47
27210;BME280;14721;42.668;23.386;2023-02-10T10:06:45;97025.13;;;-0.07;51.87
27210;BME280;14721;42.668;23.386;2023-02-10T10:11:43;97022.41;;;0.03;51.80
27210;BME280;14721;42.668;23.386;2023-02-10T10:26:15;97001.19;;;0.28;51.23
27210;BME280;14721;42.668;23.386;2023-02-10T10:28:57;97012.59;;;0.24;50.96
27210;BME280;14721;42.668;23.386;2023-02-10T10:31:30;96989.88;;;0.20;50.82
27210;BME280;14721;42.668;23.386;2023-02-10T10:34:08;96988.88;;;0.33;51.04
27210;BME280;14721;42.668;23.386;2023-02-10T10:36:38;96998.44;;;0.45;50.64
27210;BME280;14721;42.668;23.386;2023-02-10T10:41:52;96971.25;;;0.46;50.22
27210;BME280;14721;42.668;23.386;2023-02-10T10:44:18;96967.59;;;0.59;49.66
27210;BME280;14721;42.668;23.386;2023-02-10T10:46:58;96981.63;;;0.61;49.97
27210;BME280;14721;42.668;23.386;2023-02-10T10:49:26;96978.91;;;0.67;50.04
27210;BME280;14721;42.668;23.386;2023-02-10T10:51:52;96979.59;;;0.88;49.67
27210;BME280;14721;42.668;23.386;2023-02-10T10:54:19;96967.25;;;0.92;49.41
27210;BME280;14721;42.668;23.386;2023-02-10T10:56:53;96977.47;;;1.19;48.59
27210;BME280;14721;42.668;23.386;2023-02-10T10:59:31;96964.44;;;1.07;48.91
27210;BME280;14721;42.668;23.386;2023-02-10T11:01:58;96966.13;;;1.14;48.47
27210;BME280;14721;42.668;23.386;2023-02-10T11:04:26;96959.03;;;1.19;48.00
27210;BME280;14721;42.668;23.386;2023-02-10T11:06:55;96955.75;;;1.02;48.01
27210;BME280;14721;42.668;23.386;2023-02-10T11:12:01;96946.06;;;1.02;48.68
27210;BME280;14721;42.668;23.386;2023-02-10T11:14:28;96953.75;;;1.19;47.87
27210;BME280;14721;42.668;23.386;2023-02-10T11:16:58;96954.56;;;1.25;47.82
27210;BME280;14721;42.668;23.386;2023-02-10T11:19:33;96952.53;;;1.47;47.35
27210;BME280;14721;42.668;23.386;2023-02-10T11:21:59;96951.69;;;1.43;46.38
27210;BME280;14721;42.668;23.386;2023-02-10T11:24:30;96943.91;;;1.34;47.15
27210;BME280;14721;42.668;23.386;2023-02-10T11:26:59;96942.25;;;1.27;47.08
27210;BME280;14721;42.668;23.386;2023-02-10T11:29:26;96937.84;;;1.28;46.03
27210;BME280;14721;42.668;23.386;2023-02-10T11:31:53;96930.16;;;1.11;46.44
27210;BME280;14721;42.668;23.386;2023-02-10T11:36:47;96929.69;;;1.46;45.73
27210;BME280;14721;42.668;23.386;2023-02-10T11:39:25;96922.50;;;1.60;44.93
27210;BME280;14721;42.668;23.386;2023-02-10T11:41:52;96917.19;;;1.63;44.82
27210;BME280;14721;42.668;23.386;2023-02-10T11:44:29;96913.56;;;1.68;44.73
27210;BME280;14721;42.668;23.386;2023-02-10T11:46:57;96907.44;;;1.69;44.59
27210;BME280;14721;42.668;23.386;2023-02-10T11:49:23;96920.31;;;1.89;45.04
27210;BME280;14721;42.668;23.386;2023-02-10T11:51:54;96920.16;;;1.98;44.26
27210;BME280;14721;42.668;23.386;2023-02-10T11:54:20;96916.72;;;1.93;43.82
27210;BME280;14721;42.668;23.386;2023-02-10T12:08:29;96892.81;;;2.04;45.56
27210;BME280;14721;42.668;23.386;2023-02-10T12:11:02;96882.34;;;1.99;45.49
27210;BME280;14721;42.668;23.386;2023-02-10T12:16:18;96876.28;;;2.44;44.52
27210;BME280;14721;42.668;23.386;2023-02-10T12:19:16;96863.09;;;2.44;43.97
27210;BME280;14721;42.668;23.386;2023-02-10T12:22:02;96874.75;;;2.33;43.97
27210;BME280;14721;42.668;23.386;2023-02-10T12:24:58;96874.72;;;2.34;44.07
27210;BME280;14721;42.668;23.386;2023-02-10T12:30:09;96865.97;;;2.31;43.23
27210;BME280;14721;42.668;23.386;2023-02-10T12:44:46;96857.41;;;2.65;41.42
27210;BME280;14721;42.668;23.386;2023-02-10T12:47:38;96849.41;;;2.70;41.49
27210;BME280;14721;42.668;23.386;2023-02-10T12:50:27;96854.34;;;2.86;41.17
27210;BME280;14721;42.668;23.386;2023-02-10T12:53:16;96847.03;;;2.97;41.11
27210;BME280;14721;42.668;23.386;2023-02-10T12:55:51;96853.84;;;3.10;40.71
27210;BME280;14721;42.668;23.386;2023-02-10T12:58:29;96854.19;;;2.94;41.02
27210;BME280;14721;42.668;23.386;2023-02-10T13:01:26;96853.22;;;2.98;41.21
27210;BME280;14721;42.668;23.386;2023-02-10T13:04:01;96852.91;;;3.11;40.59
27210;BME280;14721;42.668;23.386;2023-02-10T13:06:36;96853.66;;;3.18;40.70
27210;BME280;14721;42.668;23.386;2023-02-10T13:09:26;96854.53;;;3.17;40.54
27210;BME280;14721;42.668;23.386;2023-02-10T13:12:10;96852.31;;;3.38;40.26
27210;BME280;14721;42.668;23.386;2023-02-10T13:14:39;96850.84;;;3.27;40.10
27210;BME280;14721;42.668;23.386;2023-02-10T13:17:08;96847.53;;;3.16;40.40
27210;BME280;14721;42.668;23.386;2023-02-10T13:19:57;96851.53;;;3.33;40.19
27210;BME280;14721;42.668;23.386;2023-02-10T13:22:48;96848.59;;;3.47;39.76
27210;BME280;14721;42.668;23.386;2023-02-10T13:28:20;96846.19;;;3.36;40.38
27210;BME280;14721;42.668;23.386;2023-02-10T13:33:55;96846.78;;;3.49;39.99
27210;BME280;14721;42.668;23.386;2023-02-10T13:36:27;96847.84;;;3.42;39.75
27210;BME280;14721;42.668;23.386;2023-02-10T13:39:20;96850.56;;;3.39;39.46
27210;BME280;14721;42.668;23.386;2023-02-10T13:41:49;96844.41;;;3.38;39.43
27210;BME280;14721;42.668;23.386;2023-02-10T13:44:28;96830.50;;;3.29;39.33
27210;BME280;14721;42.668;23.386;2023-02-10T13:47:08;96840.00;;;3.39;39.64
27210;BME280;14721;42.668;23.386;2023-02-10T13:49:48;96831.59;;;3.58;39.23
27210;BME280;14721;42.668;23.386;2023-02-10T13:52:18;96836.19;;;3.50;38.93
27210;BME280;14721;42.668;23.386;2023-02-10T13:55:00;96831.16;;;3.40;39.37
27210;BME280;14721;42.668;23.386;2023-02-10T13:57:32;96842.53;;;3.43;39.44
27210;BME280;14721;42.668;23.386;2023-02-10T14:02:41;96837.31;;;3.77;39.50
27210;BME280;14721;42.668;23.386;2023-02-10T14:05:57;96829.41;;;3.75;37.59
27210;BME280;14721;42.668;23.386;2023-02-10T14:08:36;96828.53;;;3.76;36.93
27210;BME280;14721;42.668;23.386;2023-02-10T14:13:42;96831.25;;;3.73;37.16
27210;BME280;14721;42.668;23.386;2023-02-10T14:18:39;96824.97;;;3.77;37.82
27210;BME280;14721;42.668;23.386;2023-02-10T14:21:09;96826.63;;;3.81;38.32
27210;BME280;14721;42.668;23.386;2023-02-10T14:23:37;96809.25;;;3.71;38.37
27210;BME280;14721;42.668;23.386;2023-02-10T14:26:14;96823.91;;;3.84;38.57
27210;BME280;14721;42.668;23.386;2023-02-10T14:28:42;96825.59;;;3.88;38.81